sensor_id;sensor_type;location;lat;lon;timestamp;pressure;altitude;pressure_sealevel;temperature;humidity
20628;BME280;10473;42.734;24.258;2023-10-13T00:01:56;92378.44;;;12.66;64.26
20628;BME280;10473;42.734;24.258;2023-10-13T00:04:25;92344.03;;;12.40;64.87
20628;BME280;10473;42.734;24.258;2023-10-13T00:06:55;92373.13;;;12.66;64.49
20628;BME280;10473;42.734;24.258;2023-10-13T00:09:23;92367.78;;;12.62;65.01
20628;BME280;10473;42.734;24.258;2023-10-13T00:11:52;92363.97;;;12.60;65.18
20628;BME280;10473;42.734;24.258;2023-10-13T00:14:20;92370.81;;;12.64;64.44
20628;BME280;10473;42.734;24.258;2023-10-13T00:16:48;92366.63;;;12.60;64.99
20628;BME280;10473;42.734;24.258;2023-10-13T00:19:30;92362.34;;;12.52;64.93
20628;BME280;10473;42.734;24.258;2023-10-13T00:22:07;92371.84;;;12.53;64.69
20628;BME280;10473;42.734;24.258;2023-10-13T00:24:39;92360.03;;;12.47;64.39
20628;BME280;10473;42.734;24.258;2023-10-13T00:27:12;92361.56;;;12.48;64.46
20628;BME280;10473;42.734;24.258;2023-10-13T00:29:56;92357.00;;;12.48;64.91
20628;BME280;10473;42.734;24.258;2023-10-13T00:32:44;92354.72;;;12.47;64.49
20628;BME280;10473;42.734;24.258;2023-10-13T00:35:13;92346.38;;;12.48;64.32
20628;BME280;10473;42.734;24.258;2023-10-13T00:37:52;92350.16;;;12.44;64.78
20628;BME280;10473;42.734;24.258;2023-10-13T00:40:21;92353.13;;;12.39;65.09
20628;BME280;10473;42.734;24.258;2023-10-13T00:43:03;92356.19;;;12.41;65.60
20628;BME280;10473;42.734;24.258;2023-10-13T00:45:52;92346.22;;;12.31;65.40
20628;BME280;10473;42.734;24.258;2023-10-13T00:48:24;92347.00;;;12.35;65.52
20628;BME280;10473;42.734;24.258;2023-10-13T00:50:57;92342.84;;;12.37;65.40
20628;BME280;10473;42.734;24.258;2023-10-13T00:53:31;92345.16;;;12.39;65.85
20628;BME280;10473;42.734;24.258;2023-10-13T00:56:01;92341.69;;;12.35;65.37
20628;BME280;10473;42.734;24.258;2023-10-13T00:58:33;92336.34;;;12.31;65.31
20628;BME280;10473;42.734;24.258;2023-10-13T01:01:01;92336.38;;;12.35;65.77
20628;BME280;10473;42.734;24.258;2023-10-13T01:03:45;92335.56;;;12.31;65.90
20628;BME280;10473;42.734;24.258;2023-10-13T01:06:16;92339.41;;;12.33;65.96
20628;BME280;10473;42.734;24.258;2023-10-13T01:08:46;92347.00;;;12.35;65.58
20628;BME280;10473;42.734;24.258;2023-10-13T01:11:18;92338.28;;;12.38;65.72
20628;BME280;10473;42.734;24.258;2023-10-13T01:13:45;92338.69;;;12.36;65.91
20628;BME280;10473;42.734;24.258;2023-10-13T01:16:17;92347.81;;;12.39;66.14
20628;BME280;10473;42.734;24.258;2023-10-13T01:18:44;92343.47;;;12.24;65.67
20628;BME280;10473;42.734;24.258;2023-10-13T01:21:16;92345.66;;;12.15;66.38
20628;BME280;10473;42.734;24.258;2023-10-13T01:23:47;92344.16;;;12.17;65.99
20628;BME280;10473;42.734;24.258;2023-10-13T01:26:17;92346.84;;;12.21;65.60
20628;BME280;10473;42.734;24.258;2023-10-13T01:28:51;92347.56;;;12.18;66.34
20628;BME280;10473;42.734;24.258;2023-10-13T01:31:20;92345.34;;;12.20;66.02
20628;BME280;10473;42.734;24.258;2023-10-13T01:33:56;92353.03;;;11.99;66.56
20628;BME280;10473;42.734;24.258;2023-10-13T01:36:26;92346.63;;;12.00;66.87
20628;BME280;10473;42.734;24.258;2023-10-13T01:38:55;92347.34;;;11.97;66.60
20628;BME280;10473;42.734;24.258;2023-10-13T01:41:27;92340.56;;;12.03;66.47
20628;BME280;10473;42.734;24.258;2023-10-13T01:43:57;92348.88;;;11.98;66.64
20628;BME280;10473;42.734;24.258;2023-10-13T01:46:23;92350.06;;;12.04;66.63
20628;BME280;10473;42.734;24.258;2023-10-13T01:48:51;92348.97;;;12.05;66.05
20628;BME280;10473;42.734;24.258;2023-10-13T01:51:20;92346.69;;;12.07;66.13
20628;BME280;10473;42.734;24.258;2023-10-13T01:53:49;92343.72;;;12.12;66.32
20628;BME280;10473;42.734;24.258;2023-10-13T01:56:24;92343.16;;;11.96;66.43
20628;BME280;10473;42.734;24.258;2023-10-13T01:58:56;92334.84;;;11.97;66.10
20628;BME280;10473;42.734;24.258;2023-10-13T02:01:23;92346.66;;;12.03;66.08
20628;BME280;10473;42.734;24.258;2023-10-13T02:03:55;92340.22;;;12.04;65.59
20628;BME280;10473;42.734;24.258;2023-10-13T02:06:29;92345.06;;;11.99;65.97
20628;BME280;10473;42.734;24.258;2023-10-13T02:09:00;92345.72;;;11.89;65.77
20628;BME280;10473;42.734;24.258;2023-10-13T02:11:39;92345.59;;;11.78;67.02
20628;BME280;10473;42.734;24.258;2023-10-13T02:14:09;92346.44;;;11.82;66.51
20628;BME280;10473;42.734;24.258;2023-10-13T02:16:38;92349.06;;;11.82;66.16
20628;BME280;10473;42.734;24.258;2023-10-13T02:19:06;92339.41;;;11.67;67.51
20628;BME280;10473;42.734;24.258;2023-10-13T02:21:35;92335.59;;;11.65;66.74
20628;BME280;10473;42.734;24.258;2023-10-13T02:24:07;92339.53;;;11.78;66.23
20628;BME280;10473;42.734;24.258;2023-10-13T02:26:41;92333.41;;;11.74;66.10
20628;BME280;10473;42.734;24.258;2023-10-13T02:29:09;92334.09;;;11.67;67.15
20628;BME280;10473;42.734;24.258;2023-10-13T02:31:40;92341.38;;;11.74;66.51
20628;BME280;10473;42.734;24.258;2023-10-13T02:34:08;92336.78;;;11.71;66.94
20628;BME280;10473;42.734;24.258;2023-10-13T02:36:36;92342.84;;;11.71;66.63
20628;BME280;10473;42.734;24.258;2023-10-13T02:39:10;92334.94;;;11.75;66.44
20628;BME280;10473;42.734;24.258;2023-10-13T02:41:41;92339.50;;;11.74;66.33
20628;BME280;10473;42.734;24.258;2023-10-13T02:44:14;92329.97;;;11.70;67.01
20628;BME280;10473;42.734;24.258;2023-10-13T02:46:53;92332.34;;;11.78;66.11
20628;BME280;10473;42.734;24.258;2023-10-13T02:49:22;92314.41;;;11.68;65.89
20628;BME280;10473;42.734;24.258;2023-10-13T02:51:52;92326.13;;;11.67;67.29
20628;BME280;10473;42.734;24.258;2023-10-13T02:54:19;92321.19;;;11.66;67.34
20628;BME280;10473;42.734;24.258;2023-10-13T02:56:48;92320.41;;;11.65;66.99
20628;BME280;10473;42.734;24.258;2023-10-13T02:59:15;92328.78;;;11.67;67.20
20628;BME280;10473;42.734;24.258;2023-10-13T03:01:46;92328.50;;;11.76;66.92
20628;BME280;10473;42.734;24.258;2023-10-13T03:04:12;92321.59;;;11.68;66.59
20628;BME280;10473;42.734;24.258;2023-10-13T03:06:40;92320.19;;;11.77;66.55
20628;BME280;10473;42.734;24.258;2023-10-13T03:09:08;92322.75;;;11.70;66.55
20628;BME280;10473;42.734;24.258;2023-10-13T03:11:44;92325.03;;;11.72;66.87
20628;BME280;10473;42.734;24.258;2023-10-13T03:14:18;92330.03;;;11.77;66.49
20628;BME280;10473;42.734;24.258;2023-10-13T03:16:52;92329.84;;;11.63;66.90
20628;BME280;10473;42.734;24.258;2023-10-13T03:19:21;92337.94;;;11.70;67.23
20628;BME280;10473;42.734;24.258;2023-10-13T03:21:48;92329.84;;;11.63;67.13
20628;BME280;10473;42.734;24.258;2023-10-13T03:24:22;92332.63;;;11.70;66.90
20628;BME280;10473;42.734;24.258;2023-10-13T03:27:00;92323.09;;;11.69;67.15
20628;BME280;10473;42.734;24.258;2023-10-13T03:29:37;92338.72;;;11.74;66.40
20628;BME280;10473;42.734;24.258;2023-10-13T03:32:09;92336.13;;;11.77;66.61
20628;BME280;10473;42.734;24.258;2023-10-13T03:34:40;92328.91;;;11.78;66.05
20628;BME280;10473;42.734;24.258;2023-10-13T03:37:21;92328.09;;;11.74;66.23
20628;BME280;10473;42.734;24.258;2023-10-13T03:40:06;92326.56;;;11.73;66.50
20628;BME280;10473;42.734;24.258;2023-10-13T03:42:56;92330.72;;;11.70;65.85
20628;BME280;10473;42.734;24.258;2023-10-13T03:45:33;92337.72;;;11.56;66.67
20628;BME280;10473;42.734;24.258;2023-10-13T03:48:06;92327.41;;;11.51;66.99
20628;BME280;10473;42.734;24.258;2023-10-13T03:50:36;92332.41;;;11.56;66.49
20628;BME280;10473;42.734;24.258;2023-10-13T03:53:12;92313.00;;;11.52;65.83
20628;BME280;10473;42.734;24.258;2023-10-13T03:55:42;92324.50;;;11.59;66.10
20628;BME280;10473;42.734;24.258;2023-10-13T03:58:14;92334.25;;;11.52;65.83
20628;BME280;10473;42.734;24.258;2023-10-13T04:00:45;92319.16;;;11.30;66.67
20628;BME280;10473;42.734;24.258;2023-10-13T04:03:13;92318.53;;;11.40;67.05
20628;BME280;10473;42.734;24.258;2023-10-13T04:05:43;92321.56;;;11.38;66.71
20628;BME280;10473;42.734;24.258;2023-10-13T04:08:27;92306.53;;;11.49;66.25
20628;BME280;10473;42.734;24.258;2023-10-13T04:11:15;92314.84;;;11.48;66.29
20628;BME280;10473;42.734;24.258;2023-10-13T04:13:59;92308.72;;;11.44;66.59
20628;BME280;10473;42.734;24.258;2023-10-13T04:16:46;92298.16;;;11.47;66.31
20628;BME280;10473;42.734;24.258;2023-10-13T04:19:20;92299.25;;;11.43;66.71
20628;BME280;10473;42.734;24.258;2023-10-13T04:21:50;92300.34;;;11.38;67.07
20628;BME280;10473;42.734;24.258;2023-10-13T04:24:40;92304.91;;;11.41;66.90
20628;BME280;10473;42.734;24.258;2023-10-13T04:27:22;92295.13;;;11.45;67.02
20628;BME280;10473;42.734;24.258;2023-10-13T04:30:19;92290.50;;;11.42;66.49
20628;BME280;10473;42.734;24.258;2023-10-13T04:32:55;92292.00;;;11.40;67.64
20628;BME280;10473;42.734;24.258;2023-10-13T04:36:02;92307.25;;;11.46;66.85
20628;BME280;10473;42.734;24.258;2023-10-13T04:38:40;92306.06;;;11.44;67.02
20628;BME280;10473;42.734;24.258;2023-10-13T04:41:24;92311.00;;;11.42;67.15
20628;BME280;10473;42.734;24.258;2023-10-13T04:43:51;92306.50;;;11.46;67.19
20628;BME280;10473;42.734;24.258;2023-10-13T04:46:31;92305.38;;;11.47;67.12
20628;BME280;10473;42.734;24.258;2023-10-13T04:49:22;92303.97;;;11.56;66.52
20628;BME280;10473;42.734;24.258;2023-10-13T04:51:55;92314.19;;;11.54;66.99
20628;BME280;10473;42.734;24.258;2023-10-13T04:54:27;92311.63;;;11.61;68.06
20628;BME280;10473;42.734;24.258;2023-10-13T04:57:00;92324.34;;;11.75;67.38
20628;BME280;10473;42.734;24.258;2023-10-13T04:59:49;92320.75;;;11.93;67.49
20628;BME280;10473;42.734;24.258;2023-10-13T05:02:35;92323.28;;;12.16;66.70
20628;BME280;10473;42.734;24.258;2023-10-13T05:05:45;92335.72;;;12.45;66.26
20628;BME280;10473;42.734;24.258;2023-10-13T05:08:20;92344.69;;;12.70;65.94
20628;BME280;10473;42.734;24.258;2023-10-13T05:11:05;92340.69;;;12.93;65.63
20628;BME280;10473;42.734;24.258;2023-10-13T05:13:50;92336.00;;;13.20;64.13
20628;BME280;10473;42.734;24.258;2023-10-13T05:16:35;92335.13;;;13.66;64.16
20628;BME280;10473;42.734;24.258;2023-10-13T05:19:20;92351.28;;;14.05;63.58
20628;BME280;10473;42.734;24.258;2023-10-13T05:22:06;92339.25;;;14.35;63.72
20628;BME280;10473;42.734;24.258;2023-10-13T05:24:51;92348.50;;;14.83;62.35
20628;BME280;10473;42.734;24.258;2023-10-13T05:27:37;92362.22;;;15.24;62.27
20628;BME280;10473;42.734;24.258;2023-10-13T05:30:27;92372.13;;;15.65;60.38
20628;BME280;10473;42.734;24.258;2023-10-13T05:33:12;92362.09;;;16.04;60.00
20628;BME280;10473;42.734;24.258;2023-10-13T05:35:58;92359.66;;;16.52;58.46
20628;BME280;10473;42.734;24.258;2023-10-13T05:38:44;92367.81;;;16.99;55.94
20628;BME280;10473;42.734;24.258;2023-10-13T05:41:29;92372.47;;;17.43;53.35
20628;BME280;10473;42.734;24.258;2023-10-13T05:44:14;92371.78;;;17.79;53.42
20628;BME280;10473;42.734;24.258;2023-10-13T05:47:04;92374.41;;;18.20;51.63
20628;BME280;10473;42.734;24.258;2023-10-13T05:50:10;92381.16;;;18.31;50.05
20628;BME280;10473;42.734;24.258;2023-10-13T05:52:55;92393.34;;;18.73;51.64
20628;BME280;10473;42.734;24.258;2023-10-13T05:55:42;92387.03;;;19.13;52.41
20628;BME280;10473;42.734;24.258;2023-10-13T05:58:27;92395.31;;;19.52;50.44
20628;BME280;10473;42.734;24.258;2023-10-13T06:01:12;92397.41;;;19.90;49.43
20628;BME280;10473;42.734;24.258;2023-10-13T06:03:58;92400.94;;;20.30;48.64
20628;BME280;10473;42.734;24.258;2023-10-13T06:06:54;92386.94;;;20.58;46.69
20628;BME280;10473;42.734;24.258;2023-10-13T06:09:39;92399.31;;;20.94;47.37
20628;BME280;10473;42.734;24.258;2023-10-13T06:12:25;92399.72;;;20.73;47.59
20628;BME280;10473;42.734;24.258;2023-10-13T06:15:10;92400.50;;;20.93;47.47
20628;BME280;10473;42.734;24.258;2023-10-13T06:17:55;92401.97;;;20.75;47.09
20628;BME280;10473;42.734;24.258;2023-10-13T06:20:40;92395.41;;;21.15;48.81
20628;BME280;10473;42.734;24.258;2023-10-13T06:23:26;92402.75;;;21.46;47.80
20628;BME280;10473;42.734;24.258;2023-10-13T06:26:11;92399.03;;;21.76;46.04
20628;BME280;10473;42.734;24.258;2023-10-13T06:28:57;92403.81;;;22.00;46.40
20628;BME280;10473;42.734;24.258;2023-10-13T06:31:25;92402.13;;;22.06;46.78
20628;BME280;10473;42.734;24.258;2023-10-13T06:33:53;92406.69;;;22.38;46.34
20628;BME280;10473;42.734;24.258;2023-10-13T06:36:21;92417.56;;;22.66;44.51
20628;BME280;10473;42.734;24.258;2023-10-13T06:38:49;92411.91;;;23.02;44.77
20628;BME280;10473;42.734;24.258;2023-10-13T06:41:42;92416.75;;;23.48;44.08
20628;BME280;10473;42.734;24.258;2023-10-13T06:44:11;92412.25;;;23.16;41.62
20628;BME280;10473;42.734;24.258;2023-10-13T06:46:42;92411.25;;;22.41;44.10
20628;BME280;10473;42.734;24.258;2023-10-13T06:49:10;92414.47;;;23.21;43.24
20628;BME280;10473;42.734;24.258;2023-10-13T06:51:39;92414.34;;;23.25;42.57
20628;BME280;10473;42.734;24.258;2023-10-13T06:54:07;92413.81;;;23.67;42.93
20628;BME280;10473;42.734;24.258;2023-10-13T06:56:46;92418.28;;;23.49;41.63
20628;BME280;10473;42.734;24.258;2023-10-13T06:59:19;92412.31;;;23.91;41.03
20628;BME280;10473;42.734;24.258;2023-10-13T07:01:52;92427.59;;;24.44;40.90
20628;BME280;10473;42.734;24.258;2023-10-13T07:04:20;92426.34;;;24.24;39.99
20628;BME280;10473;42.734;24.258;2023-10-13T07:06:48;92425.84;;;24.50;40.80
20628;BME280;10473;42.734;24.258;2023-10-13T07:09:16;92414.38;;;23.50;40.98
20628;BME280;10473;42.734;24.258;2023-10-13T07:12:10;92420.31;;;23.95;41.68
20628;BME280;10473;42.734;24.258;2023-10-13T07:14:49;92427.97;;;24.68;41.92
20628;BME280;10473;42.734;24.258;2023-10-13T07:17:20;92426.50;;;25.32;41.57
20628;BME280;10473;42.734;24.258;2023-10-13T07:20:05;92407.66;;;26.07;39.18
20628;BME280;10473;42.734;24.258;2023-10-13T07:22:41;92423.25;;;26.25;36.79
20628;BME280;10473;42.734;24.258;2023-10-13T07:25:21;92418.59;;;26.34;35.36
20628;BME280;10473;42.734;24.258;2023-10-13T07:27:51;92413.56;;;26.15;35.90
20628;BME280;10473;42.734;24.258;2023-10-13T07:30:22;92414.84;;;26.41;36.28
20628;BME280;10473;42.734;24.258;2023-10-13T07:32:53;92408.38;;;26.83;34.29
20628;BME280;10473;42.734;24.258;2023-10-13T07:35:21;92410.03;;;26.72;34.56
20628;BME280;10473;42.734;24.258;2023-10-13T07:37:51;92408.66;;;26.94;32.92
20628;BME280;10473;42.734;24.258;2023-10-13T07:40:22;92406.50;;;27.43;34.95
20628;BME280;10473;42.734;24.258;2023-10-13T07:43:05;92424.09;;;28.16;32.35
20628;BME280;10473;42.734;24.258;2023-10-13T07:45:38;92425.00;;;28.13;31.43
20628;BME280;10473;42.734;24.258;2023-10-13T07:48:09;92418.19;;;27.26;31.65
20628;BME280;10473;42.734;24.258;2023-10-13T07:50:45;92417.00;;;27.68;32.95
20628;BME280;10473;42.734;24.258;2023-10-13T07:53:14;92410.63;;;28.45;31.34
20628;BME280;10473;42.734;24.258;2023-10-13T07:55:50;92418.88;;;27.44;30.73
20628;BME280;10473;42.734;24.258;2023-10-13T07:58:21;92406.88;;;28.10;30.54
20628;BME280;10473;42.734;24.258;2023-10-13T08:00:52;92413.22;;;28.87;30.27
20628;BME280;10473;42.734;24.258;2023-10-13T08:03:32;92422.81;;;29.49;29.46
20628;BME280;10473;42.734;24.258;2023-10-13T08:06:11;92420.84;;;30.42;30.26
20628;BME280;10473;42.734;24.258;2023-10-13T08:08:52;92418.94;;;31.28;28.14
20628;BME280;10473;42.734;24.258;2023-10-13T08:11:33;92413.81;;;30.56;28.29
20628;BME280;10473;42.734;24.258;2023-10-13T08:14:04;92413.44;;;31.28;27.48
20628;BME280;10473;42.734;24.258;2023-10-13T08:16:40;92417.84;;;31.46;26.23
20628;BME280;10473;42.734;24.258;2023-10-13T08:19:20;92419.91;;;31.25;26.81
20628;BME280;10473;42.734;24.258;2023-10-13T08:21:54;92415.88;;;29.77;28.40
20628;BME280;10473;42.734;24.258;2023-10-13T08:24:25;92417.47;;;30.87;28.19
20628;BME280;10473;42.734;24.258;2023-10-13T08:26:56;92410.66;;;31.48;27.02
20628;BME280;10473;42.734;24.258;2023-10-13T08:29:41;92417.50;;;30.18;27.27
20628;BME280;10473;42.734;24.258;2023-10-13T08:32:36;92418.50;;;31.61;27.06
20628;BME280;10473;42.734;24.258;2023-10-13T08:35:12;92416.56;;;31.92;26.18
20628;BME280;10473;42.734;24.258;2023-10-13T08:38:01;92419.94;;;32.91;26.30
20628;BME280;10473;42.734;24.258;2023-10-13T08:40:43;92419.78;;;32.64;24.37
20628;BME280;10473;42.734;24.258;2023-10-13T08:43:43;92412.13;;;32.73;24.88
20628;BME280;10473;42.734;24.258;2023-10-13T08:46:17;92414.22;;;31.54;25.60
20628;BME280;10473;42.734;24.258;2023-10-13T08:48:58;92416.00;;;33.03;25.22
20628;BME280;10473;42.734;24.258;2023-10-13T08:51:36;92427.16;;;33.42;23.46
20628;BME280;10473;42.734;24.258;2023-10-13T08:54:16;92415.25;;;34.16;23.75
20628;BME280;10473;42.734;24.258;2023-10-13T08:57:00;92418.66;;;32.81;24.12
20628;BME280;10473;42.734;24.258;2023-10-13T08:59:46;92418.72;;;31.83;25.47
20628;BME280;10473;42.734;24.258;2023-10-13T09:02:21;92430.47;;;32.98;24.16
20628;BME280;10473;42.734;24.258;2023-10-13T09:05:11;92426.25;;;34.16;24.65
20628;BME280;10473;42.734;24.258;2023-10-13T09:07:53;92426.94;;;35.45;22.37
20628;BME280;10473;42.734;24.258;2023-10-13T09:10:34;92434.25;;;36.78;22.21
20628;BME280;10473;42.734;24.258;2023-10-13T09:13:10;92421.81;;;37.32;20.90
20628;BME280;10473;42.734;24.258;2023-10-13T09:15:46;92419.28;;;37.16;20.94
20628;BME280;10473;42.734;24.258;2023-10-13T09:18:29;92416.34;;;36.84;21.63
20628;BME280;10473;42.734;24.258;2023-10-13T09:21:14;92428.91;;;37.46;21.06
20628;BME280;10473;42.734;24.258;2023-10-13T09:24:13;92426.59;;;36.59;20.80
20628;BME280;10473;42.734;24.258;2023-10-13T09:26:48;92416.69;;;35.35;23.51
20628;BME280;10473;42.734;24.258;2023-10-13T09:29:21;92423.22;;;35.83;22.32
20628;BME280;10473;42.734;24.258;2023-10-13T09:31:58;92416.94;;;36.95;21.22
20628;BME280;10473;42.734;24.258;2023-10-13T09:34:28;92419.28;;;37.53;19.80
20628;BME280;10473;42.734;24.258;2023-10-13T09:37:01;92417.63;;;38.00;20.61
20628;BME280;10473;42.734;24.258;2023-10-13T09:39:32;92414.34;;;38.33;19.37
20628;BME280;10473;42.734;24.258;2023-10-13T09:42:11;92411.97;;;37.37;19.68
20628;BME280;10473;42.734;24.258;2023-10-13T09:44:39;92399.91;;;37.71;18.69
20628;BME280;10473;42.734;24.258;2023-10-13T09:47:10;92402.84;;;37.42;20.11
20628;BME280;10473;42.734;24.258;2023-10-13T09:49:44;92404.03;;;37.83;20.86
20628;BME280;10473;42.734;24.258;2023-10-13T09:52:15;92406.28;;;38.92;19.52
20628;BME280;10473;42.734;24.258;2023-10-13T09:54:56;92411.06;;;39.44;19.56
20628;BME280;10473;42.734;24.258;2023-10-13T09:57:34;92404.13;;;39.71;18.84
20628;BME280;10473;42.734;24.258;2023-10-13T10:00:09;92406.56;;;39.15;18.92
20628;BME280;10473;42.734;24.258;2023-10-13T10:02:55;92397.72;;;39.42;19.08
20628;BME280;10473;42.734;24.258;2023-10-13T10:05:30;92402.72;;;38.79;20.22
20628;BME280;10473;42.734;24.258;2023-10-13T10:08:02;92405.06;;;38.30;19.44
20628;BME280;10473;42.734;24.258;2023-10-13T10:10:45;92397.84;;;37.59;19.90
20628;BME280;10473;42.734;24.258;2023-10-13T10:13:21;92390.13;;;36.90;20.54
20628;BME280;10473;42.734;24.258;2023-10-13T10:15:51;92385.06;;;36.70;22.81
20628;BME280;10473;42.734;24.258;2023-10-13T10:18:23;92379.91;;;37.04;21.13
20628;BME280;10473;42.734;24.258;2023-10-13T10:21:03;92375.13;;;37.04;19.33
20628;BME280;10473;42.734;24.258;2023-10-13T10:23:35;92375.84;;;36.62;18.93
20628;BME280;10473;42.734;24.258;2023-10-13T10:26:12;92366.56;;;35.71;18.51
20628;BME280;10473;42.734;24.258;2023-10-13T10:28:42;92372.22;;;34.02;20.08
20628;BME280;10473;42.734;24.258;2023-10-13T10:31:11;92364.59;;;34.63;20.38
20628;BME280;10473;42.734;24.258;2023-10-13T10:33:41;92375.66;;;34.58;20.26
20628;BME280;10473;42.734;24.258;2023-10-13T10:36:09;92366.41;;;34.44;19.57
20628;BME280;10473;42.734;24.258;2023-10-13T10:38:53;92361.28;;;34.76;19.90
20628;BME280;10473;42.734;24.258;2023-10-13T10:41:26;92361.34;;;35.27;19.64
20628;BME280;10473;42.734;24.258;2023-10-13T10:44:10;92358.34;;;35.66;20.64
20628;BME280;10473;42.734;24.258;2023-10-13T10:46:42;92358.41;;;35.14;20.75
20628;BME280;10473;42.734;24.258;2023-10-13T10:49:18;92356.09;;;34.56;21.11
20628;BME280;10473;42.734;24.258;2023-10-13T10:51:58;92353.19;;;35.86;21.11
20628;BME280;10473;42.734;24.258;2023-10-13T10:54:31;92349.53;;;35.67;21.90
20628;BME280;10473;42.734;24.258;2023-10-13T10:57:00;92351.63;;;36.74;19.84
20628;BME280;10473;42.734;24.258;2023-10-13T10:59:38;92349.09;;;35.17;20.40
20628;BME280;10473;42.734;24.258;2023-10-13T11:02:07;92346.44;;;34.11;20.67
20628;BME280;10473;42.734;24.258;2023-10-13T11:04:35;92346.03;;;32.82;22.34
20628;BME280;10473;42.734;24.258;2023-10-13T11:07:07;92342.72;;;34.03;22.47
20628;BME280;10473;42.734;24.258;2023-10-13T11:09:37;92343.16;;;35.08;21.85
20628;BME280;10473;42.734;24.258;2023-10-13T11:12:13;92351.69;;;35.85;23.23
20628;BME280;10473;42.734;24.258;2023-10-13T11:15:00;92351.78;;;36.57;22.10
20628;BME280;10473;42.734;24.258;2023-10-13T11:17:28;92342.38;;;37.14;20.27
20628;BME280;10473;42.734;24.258;2023-10-13T11:20:18;92343.22;;;37.03;20.10
20628;BME280;10473;42.734;24.258;2023-10-13T11:22:52;92340.50;;;36.55;19.07
20628;BME280;10473;42.734;24.258;2023-10-13T11:25:24;92342.53;;;36.55;21.46
20628;BME280;10473;42.734;24.258;2023-10-13T11:27:56;92337.91;;;36.39;20.52
20628;BME280;10473;42.734;24.258;2023-10-13T11:30:27;92331.28;;;35.64;20.83
20628;BME280;10473;42.734;24.258;2023-10-13T11:33:09;92326.16;;;35.44;21.16
20628;BME280;10473;42.734;24.258;2023-10-13T11:35:39;92323.75;;;35.30;20.57
20628;BME280;10473;42.734;24.258;2023-10-13T11:38:29;92326.44;;;34.95;23.24
20628;BME280;10473;42.734;24.258;2023-10-13T11:41:09;92321.75;;;34.73;22.16
20628;BME280;10473;42.734;24.258;2023-10-13T11:43:42;92315.84;;;34.47;22.88
20628;BME280;10473;42.734;24.258;2023-10-13T11:46:27;92323.47;;;33.86;22.34
20628;BME280;10473;42.734;24.258;2023-10-13T11:49:12;92330.16;;;33.25;22.59
20628;BME280;10473;42.734;24.258;2023-10-13T11:51:58;92324.88;;;33.10;22.92
20628;BME280;10473;42.734;24.258;2023-10-13T11:54:48;92320.00;;;32.25;24.15
20628;BME280;10473;42.734;24.258;2023-10-13T11:57:18;92310.09;;;31.91;24.05
20628;BME280;10473;42.734;24.258;2023-10-13T11:59:46;92312.41;;;31.67;24.51
20628;BME280;10473;42.734;24.258;2023-10-13T12:02:22;92312.63;;;31.32;24.87
20628;BME280;10473;42.734;24.258;2023-10-13T12:05:07;92314.38;;;31.10;25.88
20628;BME280;10473;42.734;24.258;2023-10-13T12:07:43;92303.88;;;30.77;25.48
20628;BME280;10473;42.734;24.258;2023-10-13T12:10:15;92305.44;;;30.64;26.12
20628;BME280;10473;42.734;24.258;2023-10-13T12:13:01;92306.56;;;30.32;25.72
20628;BME280;10473;42.734;24.258;2023-10-13T12:15:38;92307.44;;;30.23;26.11
20628;BME280;10473;42.734;24.258;2023-10-13T12:18:15;92306.63;;;30.17;26.28
20628;BME280;10473;42.734;24.258;2023-10-13T12:20:45;92300.44;;;30.02;26.08
20628;BME280;10473;42.734;24.258;2023-10-13T12:23:19;92303.00;;;29.91;24.63
20628;BME280;10473;42.734;24.258;2023-10-13T12:26:01;92300.13;;;29.80;26.04
20628;BME280;10473;42.734;24.258;2023-10-13T12:29:08;92298.47;;;29.54;24.46
20628;BME280;10473;42.734;24.258;2023-10-13T12:31:48;92307.53;;;29.45;25.92
20628;BME280;10473;42.734;24.258;2023-10-13T12:34:27;92303.66;;;29.37;26.28
20628;BME280;10473;42.734;24.258;2023-10-13T12:37:21;92303.97;;;29.25;25.95
20628;BME280;10473;42.734;24.258;2023-10-13T12:40:06;92295.31;;;29.12;26.30
20628;BME280;10473;42.734;24.258;2023-10-13T12:42:51;92311.84;;;28.94;26.96
20628;BME280;10473;42.734;24.258;2023-10-13T12:45:40;92301.78;;;28.85;26.69
20628;BME280;10473;42.734;24.258;2023-10-13T12:48:29;92300.44;;;28.66;27.71
20628;BME280;10473;42.734;24.258;2023-10-13T12:51:20;92297.34;;;28.59;27.50
20628;BME280;10473;42.734;24.258;2023-10-13T12:54:12;92297.72;;;28.52;27.02
20628;BME280;10473;42.734;24.258;2023-10-13T12:56:46;92299.22;;;28.53;27.50
20628;BME280;10473;42.734;24.258;2023-10-13T12:59:14;92300.31;;;28.46;28.06
20628;BME280;10473;42.734;24.258;2023-10-13T13:01:43;92290.63;;;28.45;27.64
20628;BME280;10473;42.734;24.258;2023-10-13T13:04:11;92294.00;;;28.40;27.25
20628;BME280;10473;42.734;24.258;2023-10-13T13:06:46;92295.97;;;28.40;27.74
20628;BME280;10473;42.734;24.258;2023-10-13T13:09:14;92301.09;;;28.47;27.87
20628;BME280;10473;42.734;24.258;2023-10-13T13:11:42;92300.59;;;28.48;27.60
20628;BME280;10473;42.734;24.258;2023-10-13T13:14:09;92293.56;;;28.42;26.57
20628;BME280;10473;42.734;24.258;2023-10-13T13:16:37;92293.88;;;28.35;27.20
20628;BME280;10473;42.734;24.258;2023-10-13T13:19:07;92291.91;;;28.35;27.77
20628;BME280;10473;42.734;24.258;2023-10-13T13:21:40;92292.88;;;28.23;28.03
20628;BME280;10473;42.734;24.258;2023-10-13T13:24:08;92297.41;;;28.26;28.72
20628;BME280;10473;42.734;24.258;2023-10-13T13:26:37;92289.88;;;28.21;28.79
20628;BME280;10473;42.734;24.258;2023-10-13T13:29:08;92297.38;;;28.12;28.18
20628;BME280;10473;42.734;24.258;2023-10-13T13:31:37;92294.19;;;28.13;27.97
20628;BME280;10473;42.734;24.258;2023-10-13T13:34:11;92300.28;;;28.08;28.42
20628;BME280;10473;42.734;24.258;2023-10-13T13:36:39;92291.59;;;27.95;28.13
20628;BME280;10473;42.734;24.258;2023-10-13T13:39:10;92295.91;;;27.78;28.55